sensor_id;sensor_type;location;lat;lon;timestamp;P1;durP1;ratioP1;P2;durP2;ratioP2
3991;SDS011;2010;48.194;16.394;2023-03-21T00:01:04;8.43;;;7.63;;
3991;SDS011;2010;48.194;16.394;2023-03-21T00:03:43;8.10;;;7.30;;
3991;SDS011;2010;48.194;16.394;2023-03-21T00:06:18;7.83;;;7.10;;
3991;SDS011;2010;48.194;16.394;2023-03-21T00:08:55;9.43;;;8.30;;
3991;SDS011;2010;48.194;16.394;2023-03-21T00:11:28;8.97;;;8.00;;
3991;SDS011;2010;48.194;16.394;2023-03-21T00:13:59;8.40;;;7.60;;
3991;SDS011;2010;48.194;16.394;2023-03-21T00:16:42;11.20;;;8.13;;
3991;SDS011;2010;48.194;16.394;2023-03-21T00:19:17;9.23;;;8.10;;
3991;SDS011;2010;48.194;16.394;2023-03-21T00:21:48;9.20;;;8.13;;
3991;SDS011;2010;48.194;16.394;2023-03-21T00:24:34;13.17;;;8.53;;
3991;SDS011;2010;48.194;16.394;2023-03-21T00:27:06;8.63;;;7.83;;
3991;SDS011;2010;48.194;16.394;2023-03-21T00:30:10;10.63;;;9.40;;
3991;SDS011;2010;48.194;16.394;2023-03-21T00:32:41;9.20;;;8.30;;
3991;SDS011;2010;48.194;16.394;2023-03-21T00:35:22;8.43;;;7.63;;
3991;SDS011;2010;48.194;16.394;2023-03-21T00:38:14;8.73;;;7.93;;
3991;SDS011;2010;48.194;16.394;2023-03-21T00:40:44;9.43;;;8.20;;
3991;SDS011;2010;48.194;16.394;2023-03-21T00:43:15;9.17;;;8.17;;
3991;SDS011;2010;48.194;16.394;2023-03-21T00:46:04;11.83;;;8.60;;
3991;SDS011;2010;48.194;16.394;2023-03-21T00:48:40;9.03;;;8.23;;
3991;SDS011;2010;48.194;16.394;2023-03-21T00:51:13;9.47;;;8.57;;
3991;SDS011;2010;48.194;16.394;2023-03-21T00:53:52;11.70;;;8.47;;
3991;SDS011;2010;48.194;16.394;2023-03-21T00:56:31;9.37;;;8.47;;
3991;SDS011;2010;48.194;16.394;2023-03-21T00:59:00;11.87;;;8.33;;
3991;SDS011;2010;48.194;16.394;2023-03-21T01:01:36;9.67;;;7.83;;
3991;SDS011;2010;48.194;16.394;2023-03-21T01:04:07;8.97;;;7.87;;
3991;SDS011;2010;48.194;16.394;2023-03-21T01:06:48;8.70;;;7.80;;
3991;SDS011;2010;48.194;16.394;2023-03-21T01:09:20;11.10;;;8.77;;
3991;SDS011;2010;48.194;16.394;2023-03-21T01:11:59;8.70;;;7.80;;
3991;SDS011;2010;48.194;16.394;2023-03-21T01:14:30;8.63;;;6.93;;
3991;SDS011;2010;48.194;16.394;2023-03-21T01:17:04;7.17;;;6.57;;
3991;SDS011;2010;48.194;16.394;2023-03-21T01:19:34;10.07;;;7.70;;
3991;SDS011;2010;48.194;16.394;2023-03-21T01:22:19;8.27;;;7.50;;
3991;SDS011;2010;48.194;16.394;2023-03-21T01:24:48;7.67;;;7.07;;
3991;SDS011;2010;48.194;16.394;2023-03-21T01:27:28;8.57;;;7.70;;
3991;SDS011;2010;48.194;16.394;2023-03-21T01:29:59;7.43;;;6.73;;
3991;SDS011;2010;48.194;16.394;2023-03-21T01:32:36;7.87;;;7.07;;
3991;SDS011;2010;48.194;16.394;2023-03-21T01:35:12;6.57;;;5.97;;
3991;SDS011;2010;48.194;16.394;2023-03-21T01:37:44;8.37;;;5.33;;
3991;SDS011;2010;48.194;16.394;2023-03-21T01:40:17;7.70;;;5.70;;
3991;SDS011;2010;48.194;16.394;2023-03-21T01:43:14;6.50;;;5.90;;
3991;SDS011;2010;48.194;16.394;2023-03-21T01:49:48;5.43;;;4.00;;
3991;SDS011;2010;48.194;16.394;2023-03-21T01:52:23;4.70;;;4.30;;
3991;SDS011;2010;48.194;16.394;2023-03-21T01:55:13;4.60;;;4.07;;
3991;SDS011;2010;48.194;16.394;2023-03-21T01:57:59;4.00;;;3.70;;
3991;SDS011;2010;48.194;16.394;2023-03-21T02:00:55;4.20;;;3.90;;
3991;SDS011;2010;48.194;16.394;2023-03-21T02:03:35;4.00;;;3.70;;
3991;SDS011;2010;48.194;16.394;2023-03-21T02:06:49;4.03;;;3.73;;
3991;SDS011;2010;48.194;16.394;2023-03-21T02:09:32;4.17;;;3.80;;
3991;SDS011;2010;48.194;16.394;2023-03-21T02:12:07;4.77;;;4.00;;
3991;SDS011;2010;48.194;16.394;2023-03-21T02:14:37;4.30;;;3.90;;
3991;SDS011;2010;48.194;16.394;2023-03-21T02:17:25;4.17;;;3.87;;
3991;SDS011;2010;48.194;16.394;2023-03-21T02:35:56;5.57;;;4.40;;
3991;SDS011;2010;48.194;16.394;2023-03-21T02:39:02;5.50;;;5.00;;
3991;SDS011;2010;48.194;16.394;2023-03-21T02:41:43;7.77;;;4.30;;
3991;SDS011;2010;48.194;16.394;2023-03-21T02:44:30;5.80;;;4.53;;
3991;SDS011;2010;48.194;16.394;2023-03-21T02:47:06;5.20;;;4.60;;
3991;SDS011;2010;48.194;16.394;2023-03-21T02:49:43;4.83;;;4.43;;
3991;SDS011;2010;48.194;16.394;2023-03-21T02:52:16;6.20;;;4.70;;
3991;SDS011;2010;48.194;16.394;2023-03-21T02:55:11;7.20;;;5.03;;
3991;SDS011;2010;48.194;16.394;2023-03-21T02:57:50;7.27;;;4.40;;
3991;SDS011;2010;48.194;16.394;2023-03-21T03:00:49;5.33;;;4.57;;
3991;SDS011;2010;48.194;16.394;2023-03-21T03:03:42;6.53;;;4.60;;
3991;SDS011;2010;48.194;16.394;2023-03-21T03:06:15;5.27;;;4.80;;
3991;SDS011;2010;48.194;16.394;2023-03-21T03:08:52;5.53;;;5.03;;
3991;SDS011;2010;48.194;16.394;2023-03-21T03:11:34;5.20;;;4.67;;
3991;SDS011;2010;48.194;16.394;2023-03-21T03:14:25;5.20;;;4.67;;
3991;SDS011;2010;48.194;16.394;2023-03-21T03:17:30;5.20;;;4.70;;
3991;SDS011;2010;48.194;16.394;2023-03-21T03:20:13;4.80;;;4.10;;
3991;SDS011;2010;48.194;16.394;2023-03-21T03:22:53;4.90;;;4.50;;
3991;SDS011;2010;48.194;16.394;2023-03-21T03:25:30;5.10;;;4.60;;
3991;SDS011;2010;48.194;16.394;2023-03-21T03:28:15;5.77;;;5.10;;
3991;SDS011;2010;48.194;16.394;2023-03-21T03:30:48;5.07;;;4.23;;
3991;SDS011;2010;48.194;16.394;2023-03-21T03:33:40;5.10;;;4.60;;
3991;SDS011;2010;48.194;16.394;2023-03-21T03:36:14;6.07;;;5.40;;
3991;SDS011;2010;48.194;16.394;2023-03-21T03:39:02;5.20;;;4.70;;
3991;SDS011;2010;48.194;16.394;2023-03-21T03:41:34;5.57;;;5.07;;
3991;SDS011;2010;48.194;16.394;2023-03-21T03:44:45;6.87;;;6.20;;
3991;SDS011;2010;48.194;16.394;2023-03-21T03:47:15;7.10;;;6.20;;
3991;SDS011;2010;48.194;16.394;2023-03-21T03:50:04;7.50;;;6.07;;
3991;SDS011;2010;48.194;16.394;2023-03-21T03:52:38;6.80;;;6.20;;
3991;SDS011;2010;48.194;16.394;2023-03-21T03:55:24;9.97;;;5.60;;
3991;SDS011;2010;48.194;16.394;2023-03-21T03:58:08;6.33;;;5.83;;
3991;SDS011;2010;48.194;16.394;2023-03-21T04:01:04;7.57;;;6.70;;
3991;SDS011;2010;48.194;16.394;2023-03-21T04:03:37;6.50;;;5.90;;
3991;SDS011;2010;48.194;16.394;2023-03-21T04:06:31;8.00;;;7.30;;
3991;SDS011;2010;48.194;16.394;2023-03-21T04:09:04;7.87;;;7.10;;
3991;SDS011;2010;48.194;16.394;2023-03-21T04:11:47;8.67;;;7.07;;
3991;SDS011;2010;48.194;16.394;2023-03-21T04:14:16;7.47;;;6.67;;
3991;SDS011;2010;48.194;16.394;2023-03-21T04:16:59;7.63;;;6.90;;
3991;SDS011;2010;48.194;16.394;2023-03-21T04:19:33;8.07;;;6.87;;
3991;SDS011;2010;48.194;16.394;2023-03-21T04:22:09;8.20;;;7.50;;
3991;SDS011;2010;48.194;16.394;2023-03-21T04:24:42;7.80;;;7.00;;
3991;SDS011;2010;48.194;16.394;2023-03-21T04:27:21;7.93;;;7.10;;
3991;SDS011;2010;48.194;16.394;2023-03-21T04:30:19;7.90;;;7.00;;
3991;SDS011;2010;48.194;16.394;2023-03-21T04:33:05;7.97;;;6.83;;
3991;SDS011;2010;48.194;16.394;2023-03-21T04:35:44;8.70;;;6.70;;
3991;SDS011;2010;48.194;16.394;2023-03-21T04:38:20;7.73;;;6.80;;
3991;SDS011;2010;48.194;16.394;2023-03-21T04:41:00;7.23;;;6.50;;
3991;SDS011;2010;48.194;16.394;2023-03-21T04:46:24;7.83;;;7.03;;
3991;SDS011;2010;48.194;16.394;2023-03-21T04:48:59;7.80;;;7.10;;
3991;SDS011;2010;48.194;16.394;2023-03-21T04:51:31;6.30;;;5.70;;
3991;SDS011;2010;48.194;16.394;2023-03-21T04:54:01;6.80;;;5.80;;
3991;SDS011;2010;48.194;16.394;2023-03-21T04:56:32;7.40;;;6.70;;
3991;SDS011;2010;48.194;16.394;2023-03-21T04:59:04;6.27;;;5.77;;
3991;SDS011;2010;48.194;16.394;2023-03-21T05:01:37;8.93;;;6.30;;
3991;SDS011;2010;48.194;16.394;2023-03-21T05:04:14;7.03;;;5.70;;
3991;SDS011;2010;48.194;16.394;2023-03-21T05:06:46;6.77;;;6.17;;
3991;SDS011;2010;48.194;16.394;2023-03-21T05:09:19;6.53;;;5.93;;
3991;SDS011;2010;48.194;16.394;2023-03-21T05:11:56;6.70;;;6.00;;
3991;SDS011;2010;48.194;16.394;2023-03-21T05:14:33;7.87;;;6.67;;
3991;SDS011;2010;48.194;16.394;2023-03-21T05:17:06;6.90;;;6.20;;
3991;SDS011;2010;48.194;16.394;2023-03-21T05:19:46;7.50;;;6.80;;
3991;SDS011;2010;48.194;16.394;2023-03-21T05:22:22;6.93;;;6.23;;
3991;SDS011;2010;48.194;16.394;2023-03-21T05:25:00;9.17;;;6.70;;
3991;SDS011;2010;48.194;16.394;2023-03-21T05:28:06;9.10;;;6.37;;
3991;SDS011;2010;48.194;16.394;2023-03-21T05:30:39;6.80;;;6.13;;
3991;SDS011;2010;48.194;16.394;2023-03-21T05:33:08;7.37;;;6.57;;
3991;SDS011;2010;48.194;16.394;2023-03-21T05:35:49;7.57;;;6.80;;
3991;SDS011;2010;48.194;16.394;2023-03-21T05:38:22;7.70;;;7.00;;
3991;SDS011;2010;48.194;16.394;2023-03-21T05:40:53;7.40;;;6.63;;
3991;SDS011;2010;48.194;16.394;2023-03-21T05:43:25;7.20;;;6.50;;
3991;SDS011;2010;48.194;16.394;2023-03-21T05:45:59;8.00;;;7.20;;
3991;SDS011;2010;48.194;16.394;2023-03-21T05:48:32;7.80;;;7.20;;
3991;SDS011;2010;48.194;16.394;2023-03-21T05:51:29;9.63;;;5.90;;
3991;SDS011;2010;48.194;16.394;2023-03-21T05:53:58;7.43;;;6.53;;
3991;SDS011;2010;48.194;16.394;2023-03-21T05:56:31;8.73;;;7.63;;
3991;SDS011;2010;48.194;16.394;2023-03-21T05:59:07;7.93;;;7.13;;
3991;SDS011;2010;48.194;16.394;2023-03-21T06:01:45;8.20;;;7.50;;
3991;SDS011;2010;48.194;16.394;2023-03-21T06:04:16;8.53;;;7.67;;
3991;SDS011;2010;48.194;16.394;2023-03-21T06:06:53;8.40;;;7.70;;
3991;SDS011;2010;48.194;16.394;2023-03-21T06:09:24;8.37;;;7.53;;
3991;SDS011;2010;48.194;16.394;2023-03-21T06:11:59;8.00;;;7.30;;
3991;SDS011;2010;48.194;16.394;2023-03-21T06:15:00;7.77;;;6.90;;
3991;SDS011;2010;48.194;16.394;2023-03-21T06:17:53;9.40;;;6.90;;
3991;SDS011;2010;48.194;16.394;2023-03-21T06:20:29;13.03;;;7.70;;
3991;SDS011;2010;48.194;16.394;2023-03-21T06:23:08;9.40;;;7.20;;
3991;SDS011;2010;48.194;16.394;2023-03-21T06:25:37;11.07;;;7.90;;
3991;SDS011;2010;48.194;16.394;2023-03-21T06:28:15;8.87;;;7.57;;
3991;SDS011;2010;48.194;16.394;2023-03-21T06:30:43;9.47;;;8.57;;
3991;SDS011;2010;48.194;16.394;2023-03-21T06:33:24;9.10;;;7.80;;
3991;SDS011;2010;48.194;16.394;2023-03-21T06:35:52;9.50;;;8.60;;
3991;SDS011;2010;48.194;16.394;2023-03-21T06:38:36;8.43;;;7.57;;
3991;SDS011;2010;48.194;16.394;2023-03-21T06:41:15;8.17;;;7.37;;
3991;SDS011;2010;48.194;16.394;2023-03-21T06:43:58;9.60;;;7.87;;
3991;SDS011;2010;48.194;16.394;2023-03-21T06:46:39;8.43;;;7.27;;
3991;SDS011;2010;48.194;16.394;2023-03-21T06:49:26;9.10;;;7.30;;
3991;SDS011;2010;48.194;16.394;2023-03-21T06:52:05;8.23;;;7.43;;
3991;SDS011;2010;48.194;16.394;2023-03-21T06:54:45;7.40;;;6.70;;
3991;SDS011;2010;48.194;16.394;2023-03-21T06:57:16;7.43;;;6.30;;
3991;SDS011;2010;48.194;16.394;2023-03-21T06:59:49;8.53;;;7.70;;
3991;SDS011;2010;48.194;16.394;2023-03-21T07:02:23;8.20;;;7.40;;
3991;SDS011;2010;48.194;16.394;2023-03-21T07:05:09;9.37;;;7.73;;
3991;SDS011;2010;48.194;16.394;2023-03-21T07:07:43;11.67;;;7.43;;
3991;SDS011;2010;48.194;16.394;2023-03-21T07:10:12;7.80;;;7.00;;
3991;SDS011;2010;48.194;16.394;2023-03-21T07:13:02;7.40;;;6.70;;
3991;SDS011;2010;48.194;16.394;2023-03-21T07:15:45;7.33;;;6.70;;
3991;SDS011;2010;48.194;16.394;2023-03-21T07:18:18;9.27;;;7.10;;
3991;SDS011;2010;48.194;16.394;2023-03-21T07:20:48;7.33;;;6.73;;
3991;SDS011;2010;48.194;16.394;2023-03-21T07:23:21;7.67;;;6.70;;
3991;SDS011;2010;48.194;16.394;2023-03-21T07:25:57;6.77;;;6.20;;
3991;SDS011;2010;48.194;16.394;2023-03-21T07:28:27;6.60;;;6.10;;
3991;SDS011;2010;48.194;16.394;2023-03-21T07:30:58;6.73;;;6.13;;
3991;SDS011;2010;48.194;16.394;2023-03-21T07:33:36;8.77;;;5.80;;
3991;SDS011;2010;48.194;16.394;2023-03-21T07:36:07;6.57;;;6.07;;
3991;SDS011;2010;48.194;16.394;2023-03-21T07:38:39;6.07;;;5.57;;
3991;SDS011;2010;48.194;16.394;2023-03-21T07:41:12;6.53;;;5.70;;
3991;SDS011;2010;48.194;16.394;2023-03-21T07:43:49;11.33;;;6.03;;
3991;SDS011;2010;48.194;16.394;2023-03-21T07:46:21;6.60;;;6.00;;
3991;SDS011;2010;48.194;16.394;2023-03-21T07:48:58;9.63;;;5.87;;
3991;SDS011;2010;48.194;16.394;2023-03-21T07:51:28;7.33;;;5.47;;
3991;SDS011;2010;48.194;16.394;2023-03-21T07:53:59;9.13;;;6.10;;
3991;SDS011;2010;48.194;16.394;2023-03-21T07:56:36;6.20;;;5.70;;
3991;SDS011;2010;48.194;16.394;2023-03-21T07:59:11;8.37;;;6.33;;
3991;SDS011;2010;48.194;16.394;2023-03-21T08:01:44;7.17;;;6.47;;
3991;SDS011;2010;48.194;16.394;2023-03-21T08:04:14;6.37;;;5.40;;
3991;SDS011;2010;48.194;16.394;2023-03-21T08:06:46;5.63;;;5.10;;
3991;SDS011;2010;48.194;16.394;2023-03-21T08:09:15;5.50;;;5.00;;
3991;SDS011;2010;48.194;16.394;2023-03-21T08:11:46;6.10;;;5.47;;
3991;SDS011;2010;48.194;16.394;2023-03-21T08:14:15;5.53;;;5.00;;
3991;SDS011;2010;48.194;16.394;2023-03-21T08:16:53;6.30;;;5.70;;
3991;SDS011;2010;48.194;16.394;2023-03-21T08:19:30;4.97;;;4.57;;
3991;SDS011;2010;48.194;16.394;2023-03-21T08:22:06;6.27;;;5.67;;
3991;SDS011;2010;48.194;16.394;2023-03-21T08:24:52;6.00;;;5.33;;
3991;SDS011;2010;48.194;16.394;2023-03-21T08:27:25;6.80;;;5.20;;
3991;SDS011;2010;48.194;16.394;2023-03-21T08:29:55;6.33;;;5.33;;
3991;SDS011;2010;48.194;16.394;2023-03-21T08:32:24;5.63;;;4.60;;
3991;SDS011;2010;48.194;16.394;2023-03-21T08:34:57;5.23;;;4.83;;
3991;SDS011;2010;48.194;16.394;2023-03-21T08:37:41;6.40;;;5.27;;
3991;SDS011;2010;48.194;16.394;2023-03-21T08:40:13;5.37;;;4.43;;
3991;SDS011;2010;48.194;16.394;2023-03-21T08:42:49;4.80;;;4.40;;
3991;SDS011;2010;48.194;16.394;2023-03-21T08:45:19;10.30;;;4.83;;
3991;SDS011;2010;48.194;16.394;2023-03-21T08:47:59;4.30;;;4.00;;
3991;SDS011;2010;48.194;16.394;2023-03-21T08:50:32;7.10;;;4.30;;
3991;SDS011;2010;48.194;16.394;2023-03-21T08:53:02;6.80;;;5.37;;
3991;SDS011;2010;48.194;16.394;2023-03-21T08:55:31;6.53;;;4.83;;
3991;SDS011;2010;48.194;16.394;2023-03-21T08:58:17;5.13;;;4.73;;
3991;SDS011;2010;48.194;16.394;2023-03-21T09:00:49;5.53;;;5.03;;
3991;SDS011;2010;48.194;16.394;2023-03-21T09:03:22;4.73;;;4.33;;
3991;SDS011;2010;48.194;16.394;2023-03-21T09:05:55;5.87;;;4.63;;
3991;SDS011;2010;48.194;16.394;2023-03-21T09:08:31;5.60;;;4.20;;
3991;SDS011;2010;48.194;16.394;2023-03-21T09:11:12;7.10;;;4.60;;
3991;SDS011;2010;48.194;16.394;2023-03-21T09:13:51;7.60;;;5.67;;
3991;SDS011;2010;48.194;16.394;2023-03-21T09:16:20;5.37;;;4.87;;
3991;SDS011;2010;48.194;16.394;2023-03-21T09:18:51;6.77;;;6.00;;
3991;SDS011;2010;48.194;16.394;2023-03-21T09:21:21;8.97;;;6.70;;
3991;SDS011;2010;48.194;16.394;2023-03-21T09:23:51;6.90;;;6.20;;
3991;SDS011;2010;48.194;16.394;2023-03-21T09:26:22;6.90;;;6.30;;
3991;SDS011;2010;48.194;16.394;2023-03-21T09:28:58;6.30;;;5.70;;
3991;SDS011;2010;48.194;16.394;2023-03-21T09:31:40;7.00;;;5.80;;
3991;SDS011;2010;48.194;16.394;2023-03-21T09:34:17;6.23;;;5.57;;
3991;SDS011;2010;48.194;16.394;2023-03-21T09:36:50;5.80;;;5.20;;
3991;SDS011;2010;48.194;16.394;2023-03-21T09:39:24;6.40;;;5.67;;
3991;SDS011;2010;48.194;16.394;2023-03-21T09:41:59;7.30;;;5.23;;
3991;SDS011;2010;48.194;16.394;2023-03-21T09:44:54;7.03;;;5.30;;
3991;SDS011;2010;48.194;16.394;2023-03-21T09:47:37;7.90;;;6.10;;
3991;SDS011;2010;48.194;16.394;2023-03-21T09:50:19;5.13;;;4.70;;
3991;SDS011;2010;48.194;16.394;2023-03-21T09:52:57;7.17;;;6.47;;
3991;SDS011;2010;48.194;16.394;2023-03-21T09:55:29;6.90;;;6.20;;
3991;SDS011;2010;48.194;16.394;2023-03-21T09:58:13;6.47;;;5.87;;
3991;SDS011;2010;48.194;16.394;2023-03-21T10:00:56;7.80;;;5.87;;
3991;SDS011;2010;48.194;16.394;2023-03-21T10:03:38;5.57;;;5.07;;
3991;SDS011;2010;48.194;16.394;2023-03-21T10:06:11;5.33;;;4.70;;
3991;SDS011;2010;48.194;16.394;2023-03-21T10:08:50;5.30;;;4.80;;
3991;SDS011;2010;48.194;16.394;2023-03-21T10:11:23;5.93;;;4.27;;
3991;SDS011;2010;48.194;16.394;2023-03-21T10:13:54;5.10;;;4.67;;
3991;SDS011;2010;48.194;16.394;2023-03-21T10:16:36;4.80;;;4.37;;
3991;SDS011;2010;48.194;16.394;2023-03-21T10:19:14;5.23;;;4.47;;
3991;SDS011;2010;48.194;16.394;2023-03-21T10:21:51;6.00;;;4.87;;
3991;SDS011;2010;48.194;16.394;2023-03-21T10:24:30;6.93;;;4.60;;
3991;SDS011;2010;48.194;16.394;2023-03-21T10:27:03;4.93;;;4.40;;
3991;SDS011;2010;48.194;16.394;2023-03-21T10:29:37;4.37;;;3.97;;
3991;SDS011;2010;48.194;16.394;2023-03-21T10:32:24;5.50;;;4.60;;
3991;SDS011;2010;48.194;16.394;2023-03-21T10:34:57;4.80;;;4.30;;
3991;SDS011;2010;48.194;16.394;2023-03-21T10:37:32;4.87;;;4.47;;
3991;SDS011;2010;48.194;16.394;2023-03-21T10:40:02;4.90;;;4.50;;
3991;SDS011;2010;48.194;16.394;2023-03-21T10:42:33;6.00;;;4.70;;
3991;SDS011;2010;48.194;16.394;2023-03-21T10:45:03;6.43;;;5.67;;
3991;SDS011;2010;48.194;16.394;2023-03-21T10:47:52;3.87;;;3.57;;
3991;SDS011;2010;48.194;16.394;2023-03-21T10:50:22;6.00;;;5.40;;
3991;SDS011;2010;48.194;16.394;2023-03-21T10:52:57;5.63;;;5.13;;
3991;SDS011;2010;48.194;16.394;2023-03-21T10:55:38;5.20;;;4.80;;
3991;SDS011;2010;48.194;16.394;2023-03-21T10:58:12;5.73;;;5.03;;
3991;SDS011;2010;48.194;16.394;2023-03-21T11:00:53;5.70;;;4.90;;
3991;SDS011;2010;48.194;16.394;2023-03-21T11:03:29;6.60;;;5.70;;
3991;SDS011;2010;48.194;16.394;2023-03-21T11:06:06;6.63;;;5.27;;
3991;SDS011;2010;48.194;16.394;2023-03-21T11:08:46;7.87;;;4.80;;
3991;SDS011;2010;48.194;16.394;2023-03-21T11:11:23;6.10;;;5.50;;
3991;SDS011;2010;48.194;16.394;2023-03-21T11:13:58;6.43;;;5.30;;
3991;SDS011;2010;48.194;16.394;2023-03-21T11:16:37;15.00;;;10.30;;
3991;SDS011;2010;48.194;16.394;2023-03-21T11:22:04;5.77;;;5.17;;
3991;SDS011;2010;48.194;16.394;2023-03-21T11:24:34;8.40;;;4.70;;
3991;SDS011;2010;48.194;16.394;2023-03-21T11:27:12;9.87;;;6.07;;
3991;SDS011;2010;48.194;16.394;2023-03-21T11:29:49;5.63;;;4.90;;
3991;SDS011;2010;48.194;16.394;2023-03-21T11:32:23;8.70;;;7.77;;
3991;SDS011;2010;48.194;16.394;2023-03-21T11:35:12;7.50;;;6.57;;
3991;SDS011;2010;48.194;16.394;2023-03-21T11:37:50;7.43;;;4.97;;
3991;SDS011;2010;48.194;16.394;2023-03-21T11:40:23;9.40;;;7.20;;
3991;SDS011;2010;48.194;16.394;2023-03-21T11:42:55;9.70;;;6.60;;
3991;SDS011;2010;48.194;16.394;2023-03-21T11:45:26;6.17;;;5.50;;
3991;SDS011;2010;48.194;16.394;2023-03-21T11:47:58;5.83;;;5.17;;
3991;SDS011;2010;48.194;16.394;2023-03-21T11:50:33;5.87;;;4.97;;
3991;SDS011;2010;48.194;16.394;2023-03-21T11:53:18;5.70;;;5.20;;
3991;SDS011;2010;48.194;16.394;2023-03-21T11:58:54;5.53;;;4.40;;
3991;SDS011;2010;48.194;16.394;2023-03-21T12:01:33;5.33;;;4.90;;
3991;SDS011;2010;48.194;16.394;2023-03-21T12:04:18;5.20;;;4.70;;
3991;SDS011;2010;48.194;16.394;2023-03-21T12:06:57;5.30;;;4.23;;
3991;SDS011;2010;48.194;16.394;2023-03-21T12:09:35;5.53;;;4.13;;
3991;SDS011;2010;48.194;16.394;2023-03-21T12:12:19;4.97;;;4.30;;
3991;SDS011;2010;48.194;16.394;2023-03-21T12:15:06;4.27;;;3.87;;
3991;SDS011;2010;48.194;16.394;2023-03-21T12:17:43;4.30;;;3.90;;
3991;SDS011;2010;48.194;16.394;2023-03-21T12:20:29;5.20;;;3.80;;
3991;SDS011;2010;48.194;16.394;2023-03-21T12:23:31;4.73;;;4.20;;
3991;SDS011;2010;48.194;16.394;2023-03-21T12:26:18;5.70;;;5.17;;
3991;SDS011;2010;48.194;16.394;2023-03-21T12:29:03;4.73;;;4.33;;
3991;SDS011;2010;48.194;16.394;2023-03-21T12:32:24;5.03;;;4.53;;
3991;SDS011;2010;48.194;16.394;2023-03-21T12:35:08;3.87;;;3.57;;
3991;SDS011;2010;48.194;16.394;2023-03-21T12:37:49;4.10;;;3.70;;
3991;SDS011;2010;48.194;16.394;2023-03-21T12:40:34;5.93;;;3.10;;
3991;SDS011;2010;48.194;16.394;2023-03-21T12:43:43;6.70;;;3.60;;
3991;SDS011;2010;48.194;16.394;2023-03-21T12:46:24;3.73;;;3.43;;
3991;SDS011;2010;48.194;16.394;2023-03-21T12:49:01;7.60;;;3.53;;
3991;SDS011;2010;48.194;16.394;2023-03-21T12:51:36;2.67;;;2.47;;
3991;SDS011;2010;48.194;16.394;2023-03-21T12:54:20;5.20;;;2.57;;
3991;SDS011;2010;48.194;16.394;2023-03-21T12:57:10;2.37;;;2.20;;
3991;SDS011;2010;48.194;16.394;2023-03-21T12:59:53;2.50;;;2.20;;
3991;SDS011;2010;48.194;16.394;2023-03-21T13:02:37;5.33;;;3.17;;
3991;SDS011;2010;48.194;16.394;2023-03-21T13:05:15;7.07;;;2.83;;
3991;SDS011;2010;48.194;16.394;2023-03-21T13:07:51;3.03;;;2.30;;
3991;SDS011;2010;48.194;16.394;2023-03-21T13:10:24;2.97;;;2.70;;
3991;SDS011;2010;48.194;16.394;2023-03-21T13:13:07;5.30;;;3.07;;
3991;SDS011;2010;48.194;16.394;2023-03-21T13:15:58;2.97;;;2.77;;
3991;SDS011;2010;48.194;16.394;2023-03-21T13:19:02;2.47;;;2.27;;
3991;SDS011;2010;48.194;16.394;2023-03-21T13:21:41;4.83;;;1.73;;
3991;SDS011;2010;48.194;16.394;2023-03-21T13:24:24;2.50;;;2.03;;
3991;SDS011;2010;48.194;16.394;2023-03-21T13:26:58;3.57;;;2.20;;
3991;SDS011;2010;48.194;16.394;2023-03-21T13:29:41;4.53;;;2.73;;
3991;SDS011;2010;48.194;16.394;2023-03-21T13:32:15;2.20;;;2.10;;
3991;SDS011;2010;48.194;16.394;2023-03-21T13:34:54;2.80;;;2.60;;
3991;SDS011;2010;48.194;16.394;2023-03-21T13:37:28;2.00;;;1.90;;
3991;SDS011;2010;48.194;16.394;2023-03-21T13:40:03;2.50;;;2.10;;
3991;SDS011;2010;48.194;16.394;2023-03-21T13:42:52;3.10;;;1.87;;
3991;SDS011;2010;48.194;16.394;2023-03-21T13:48:26;3.00;;;2.27;;
3991;SDS011;2010;48.194;16.394;2023-03-21T13:50:58;2.10;;;2.00;;
3991;SDS011;2010;48.194;16.394;2023-03-21T13:53:31;4.93;;;2.00;;
3991;SDS011;2010;48.194;16.394;2023-03-21T13:58:57;1.97;;;1.87;;
3991;SDS011;2010;48.194;16.394;2023-03-21T14:01:56;2.00;;;1.90;;
3991;SDS011;2010;48.194;16.394;2023-03-21T14:04:28;2.13;;;1.77;;
3991;SDS011;2010;48.194;16.394;2023-03-21T14:07:10;1.80;;;1.70;;
3991;SDS011;2010;48.194;16.394;2023-03-21T14:09:51;6.27;;;2.27;;
3991;SDS011;2010;48.194;16.394;2023-03-21T14:12:27;2.00;;;1.80;;
3991;SDS011;2010;48.194;16.394;2023-03-21T14:14:59;3.00;;;1.77;;
3991;SDS011;2010;48.194;16.394;2023-03-21T14:17:49;1.67;;;1.57;;
3991;SDS011;2010;48.194;16.394;2023-03-21T14:20:20;2.60;;;2.40;;
3991;SDS011;2010;48.194;16.394;2023-03-21T14:23:02;1.97;;;1.87;;
3991;SDS011;2010;48.194;16.394;2023-03-21T14:25:34;2.40;;;1.87;;
3991;SDS011;2010;48.194;16.394;2023-03-21T14:28:16;4.60;;;1.77;;
3991;SDS011;2010;48.194;16.394;2023-03-21T14:30:49;4.03;;;1.93;;
3991;SDS011;2010;48.194;16.394;2023-03-21T14:33:24;3.63;;;1.60;;
3991;SDS011;2010;48.194;16.394;2023-03-21T14:35:55;2.67;;;1.70;;
3991;SDS011;2010;48.194;16.394;2023-03-21T14:38:25;1.53;;;1.33;;
3991;SDS011;2010;48.194;16.394;2023-03-21T14:40:57;2.53;;;2.33;;
3991;SDS011;2010;48.194;16.394;2023-03-21T14:43:28;1.90;;;1.80;;
3991;SDS011;2010;48.194;16.394;2023-03-21T14:46:04;1.83;;;1.73;;
3991;SDS011;2010;48.194;16.394;2023-03-21T14:48:34;3.47;;;1.77;;
3991;SDS011;2010;48.194;16.394;2023-03-21T14:51:10;3.03;;;1.53;;
3991;SDS011;2010;48.194;16.394;2023-03-21T14:53:41;1.30;;;1.30;;
3991;SDS011;2010;48.194;16.394;2023-03-21T14:56:15;2.10;;;1.47;;
3991;SDS011;2010;48.194;16.394;2023-03-21T14:58:46;1.53;;;1.43;;
3991;SDS011;2010;48.194;16.394;2023-03-21T15:01:19;2.13;;;1.43;;
3991;SDS011;2010;48.194;16.394;2023-03-21T15:03:56;1.77;;;1.40;;
3991;SDS011;2010;48.194;16.394;2023-03-21T15:06:28;1.70;;;1.60;;
3991;SDS011;2010;48.194;16.394;2023-03-21T15:09:00;1.70;;;1.60;;
3991;SDS011;2010;48.194;16.394;2023-03-21T15:11:32;2.60;;;1.70;;
3991;SDS011;2010;48.194;16.394;2023-03-21T15:14:02;3.10;;;2.10;;
3991;SDS011;2010;48.194;16.394;2023-03-21T15:16:33;3.17;;;1.73;;
3991;SDS011;2010;48.194;16.394;2023-03-21T15:19:15;2.03;;;1.63;;
3991;SDS011;2010;48.194;16.394;2023-03-21T15:21:51;5.07;;;1.80;;
3991;SDS011;2010;48.194;16.394;2023-03-21T15:24:25;2.77;;;1.93;;
3991;SDS011;2010;48.194;16.394;2023-03-21T15:27:00;2.23;;;2.03;;
3991;SDS011;2010;48.194;16.394;2023-03-21T15:29:31;3.80;;;2.17;;
3991;SDS011;2010;48.194;16.394;2023-03-21T15:32:04;2.03;;;1.93;;
3991;SDS011;2010;48.194;16.394;2023-03-21T15:35:02;3.10;;;2.30;;
3991;SDS011;2010;48.194;16.394;2023-03-21T15:37:36;2.63;;;2.43;;
3991;SDS011;2010;48.194;16.394;2023-03-21T15:40:07;2.53;;;2.37;;
3991;SDS011;2010;48.194;16.394;2023-03-21T15:42:41;3.73;;;3.17;;
3991;SDS011;2010;48.194;16.394;2023-03-21T15:45:19;3.00;;;2.80;;
3991;SDS011;2010;48.194;16.394;2023-03-21T15:47:52;3.03;;;2.83;;
3991;SDS011;2010;48.194;16.394;2023-03-21T15:50:31;2.70;;;2.50;;
3991;SDS011;2010;48.194;16.394;2023-03-21T15:53:06;3.10;;;2.80;;
3991;SDS011;2010;48.194;16.394;2023-03-21T15:55:46;2.13;;;1.90;;
3991;SDS011;2010;48.194;16.394;2023-03-21T15:58:22;3.00;;;2.30;;
3991;SDS011;2010;48.194;16.394;2023-03-21T16:00:54;2.40;;;2.30;;
3991;SDS011;2010;48.194;16.394;2023-03-21T16:03:34;2.90;;;2.50;;
3991;SDS011;2010;48.194;16.394;2023-03-21T16:06:28;2.73;;;2.53;;
3991;SDS011;2010;48.194;16.394;2023-03-21T16:09:05;3.60;;;2.90;;
3991;SDS011;2010;48.194;16.394;2023-03-21T16:11:38;4.00;;;3.70;;
3991;SDS011;2010;48.194;16.394;2023-03-21T16:14:16;3.27;;;3.07;;
3991;SDS011;2010;48.194;16.394;2023-03-21T16:16:48;15.47;;;10.40;;
3991;SDS011;2010;48.194;16.394;2023-03-21T16:19:18;34.90;;;20.30;;
3991;SDS011;2010;48.194;16.394;2023-03-21T16:21:50;18.73;;;16.03;;
3991;SDS011;2010;48.194;16.394;2023-03-21T16:24:19;8.90;;;8.10;;
3991;SDS011;2010;48.194;16.394;2023-03-21T16:26:50;4.80;;;4.17;;
3991;SDS011;2010;48.194;16.394;2023-03-21T16:29:28;3.27;;;3.07;;
3991;SDS011;2010;48.194;16.394;2023-03-21T16:31:58;3.73;;;3.40;;
3991;SDS011;2010;48.194;16.394;2023-03-21T16:34:35;3.83;;;3.53;;
3991;SDS011;2010;48.194;16.394;2023-03-21T16:37:20;6.53;;;5.33;;
3991;SDS011;2010;48.194;16.394;2023-03-21T16:39:56;7.07;;;6.20;;